Pilot Grove, Missouri
Current Conditions -  °F | °C
As of 11:35 PM on Wednesday 26 Nov 2014 (Local Time) from KVER Reporting Station
Overcast Overcast  
Wind Chill: 24°   Ceiling: 1500
Heat Index: 33°   Visibility: 10mi
Dew Point: 28°   Wind: 13mph
Humidity: 82%   Direction: 320°NW
Pressure: 30.31"   Gusts: NA
Location:  38.87°N, 92.91°W
Report Text: KVER 270535Z AUTO 32011KT 10SM OVC015 01/M02 A3031 RMK AO2 T00081020
Loading
Personal Weather Stations






























Interactive Weather Map New forecast layout! Learn more

10-Day Weather Forecast

Advertisements
Track Severe Weather on mobile